Time;durP1;ratioP1;P1;durP2;ratioP2;P2;SDS_P1;SDS_P2;PMS_P1;PMS_P2;Temp;Humidity;BMP_temperature;BMP_pressure;BME280_temperature;BME280_humidity;BME280_pressure;Samples;Min_cycle;Max_cycle;Signal;HPM_P1;HPM_P2
2022/11/17 04:37:34;;;;;;;;;;;;;;;;;;2390643;54;1559;-74
2022/11/17 04:40:08;;;;;;;;;;;;;;;;;;2391177;62;987;-74
2022/11/17 04:42:38;;;;;;;;;;;;;;;;;;2391838;54;1027;-74
2022/11/17 04:45:12;;;;;;;;;;;;;;;;;;2392539;54;986;-74
2022/11/17 04:47:45;;;;;;;;;;;;;;;;;;2392651;62;1148;-75
2022/11/17 04:50:18;;;;;;;;;;;;;;;;;;2392346;62;1162;-74
2022/11/17 05:04:02;;;;;;;;;;;;;;;;;;2390112;54;1634;-74
2022/11/17 05:06:36;;;;;;;;;;;;;;;;;;2387722;62;1427;-74
2022/11/17 05:09:10;;;;;;;;;;;;;;;;;;2392869;62;977;-74
2022/11/17 05:14:32;;;;;;;;;;;;;;;;;;2389769;62;994;-74
2022/11/17 05:17:07;;;;;;;;;;;;;;;;;;2393829;62;1017;-74
2022/11/17 05:19:45;;;;;;;;;;;;;;;;;;2393458;62;987;-74
2022/11/17 05:25:08;;;;;;;;;;;;;;;;;;2386130;62;1097;-74
2022/11/17 05:27:41;;;;;;;;;;;;;;;;;;2393226;62;944;-74
2022/11/17 05:30:15;;;;;;;;;;;;;;;;;;2392965;54;862;-74
2022/11/17 05:32:48;;;;;;;;;;;;;;;;;;2392952;54;1908;-74
2022/11/17 05:35:24;;;;;;;;;;;;;;;;;;2392991;62;1008;-74
2022/11/17 05:37:57;;;;;;;;;;;;;;;;;;2392956;62;1215;-75
2022/11/17 05:40:30;;;;;;;;;;;;;;;;;;2393310;62;950;-74
2022/11/17 05:43:03;;;;;;;;;;;;;;;;;;2393023;62;1228;-74
2022/11/17 05:45:36;;;;;;;;;;;;;;;;;;2392751;62;1058;-74
2022/11/17 05:48:10;;;;;;;;;;;;;;;;;;2392262;62;1027;-73
2022/11/17 05:50:46;;;;;;;;;;;;;;;;;;2392679;62;1037;-74
2022/11/17 05:53:19;;;;;;;;;;;;;;;;;;2392855;62;1928;-74
2022/11/17 05:55:52;;;;;;;;;;;;;;;;;;2392865;62;1049;-74
2022/11/17 05:58:28;;;;;;;;;;;;;;;;;;2393184;62;1002;-74
2022/11/17 06:01:01;;;;;;;;;;;;;;;;;;2389109;62;2007;-74
2022/11/17 06:03:36;;;;;;;;;;;;;;;;;;2393662;54;1193;-74
2022/11/17 06:06:13;;;;;;;;;;;;;;;;;;2393297;54;907;-73
2022/11/17 06:08:46;;;;;;;;;;;;;;;;;;2393823;62;852;-74
2022/11/17 06:11:19;;;;;;;;;;;;;;;;;;2393320;62;1020;-74
2022/11/17 06:13:53;;;;;;;;;;;;;;;;;;2393080;54;1982;-74
2022/11/17 06:16:28;;;;;;;;;;;;;;;;;;2392692;62;1054;-74
2022/11/17 06:19:04;;;;;;;;;;;;;;;;;;2392575;62;1004;-74
2022/11/17 06:21:40;;;;;;;;;;;;;;;;;;2392845;55;1069;-74
2022/11/17 06:24:13;;;;;;;;;;;;;;;;;;2393321;54;978;-74
2022/11/17 06:26:47;;;;;;;;;;;;;;;;;;2392806;62;884;-74
2022/11/17 06:29:20;;;;;;;;;;;;;;;;;;2392799;62;1023;-74
2022/11/17 06:31:53;;;;;;;;;;;;;;;;;;2392505;62;1158;-74
2022/11/17 06:34:27;;;;;;;;;;;;;;;;;;2392787;54;1931;-74
2022/11/17 06:37:03;;;;;;;;;;;;;;;;;;2392595;54;1031;-75
2022/11/17 06:39:36;;;;;;;;;;;;;;;;;;2392980;54;1027;-74
2022/11/17 06:42:09;;;;;;;;;;;;;;;;;;2392287;62;1228;-74
2022/11/17 06:44:42;;;;;;;;;;;;;;;;;;2392809;62;1047;-74
2022/11/17 06:47:15;;;;;;;;;;;;;;;;;;2392602;54;1021;-74
2022/11/17 06:49:49;;;;;;;;;;;;;;;;;;2391966;54;987;-74
2022/11/17 06:52:24;;;;;;;;;;;;;;;;;;2392524;62;1907;-74
2022/11/17 06:54:58;;;;;;;;;;;;;;;;;;2392471;62;1036;-74
2022/11/17 06:57:31;;;;;;;;;;;;;;;;;;2392631;54;935;-74
2022/11/17 07:00:05;;;;;;;;;;;;;;;;;;2392702;62;1058;-74
2022/11/17 07:02:38;;;;;;;;;;;;;;;;;;2393000;62;1174;-74
2022/11/17 07:05:11;;;;;;;;;;;;;;;;;;2392763;62;1040;-74
2022/11/17 07:07:47;;;;;;;;;;;;;;;;;;2392987;62;1045;-74
2022/11/17 07:10:20;;;;;;;;;;;;;;;;;;2392835;62;1036;-74
2022/11/17 07:12:53;;;;;;;;;;;;;;;;;;2392536;62;1994;-74
2022/11/17 07:15:27;;;;;;;;;;;;;;;;;;2392453;62;1019;-74
2022/11/17 07:18:00;;;;;;;;;;;;;;;;;;2392490;54;1026;-74
2022/11/17 07:20:33;;;;;;;;;;;;;;;;;;2392589;54;1011;-74
2022/11/17 07:23:09;;;;;;;;;;;;;;;;;;2392804;54;1129;-74
2022/11/17 07:25:42;;;;;;;;;;;;;;;;;;2392821;62;971;-74
2022/11/17 07:28:16;;;;;;;;;;;;;;;;;;2388388;62;2016;-74
2022/11/17 07:30:49;;;;;;;;;;;;;;;;;;2392617;54;848;-74
2022/11/17 07:33:22;;;;;;;;;;;;;;;;;;2392580;62;1973;-74
2022/11/17 07:35:56;;;;;;;;;;;;;;;;;;2391959;62;1042;-74
2022/11/17 07:38:34;;;;;;;;;;;;;;;;;;2392730;62;928;-74
2022/11/17 07:41:08;;;;;;;;;;;;;;;;;;2392298;62;1029;-74
2022/11/17 07:43:41;;;;;;;;;;;;;;;;;;2392384;62;1175;-74
2022/11/17 07:46:16;;;;;;;;;;;;;;;;;;2392755;62;1046;-74
2022/11/17 07:48:49;;;;;;;;;;;;;;;;;;2392096;62;1000;-74
2022/11/17 07:51:23;;;;;;;;;;;;;;;;;;2392563;54;1037;-74
2022/11/17 07:53:58;;;;;;;;;;;;;;;;;;2392309;62;1939;-74
2022/11/17 07:56:32;;;;;;;;;;;;;;;;;;2392525;62;1038;-74
2022/11/17 07:59:05;;;;;;;;;;;;;;;;;;2392389;62;1005;-74
2022/11/17 08:01:38;;;;;;;;;;;;;;;;;;2392768;62;1023;-74
2022/11/17 08:04:11;;;;;;;;;;;;;;;;;;2392888;54;1222;-74
2022/11/17 08:06:45;;;;;;;;;;;;;;;;;;2392616;62;1046;-74
2022/11/17 08:09:20;;;;;;;;;;;;;;;;;;2392953;62;1012;-74
2022/11/17 08:11:55;;;;;;;;;;;;;;;;;;2392687;62;1208;-74
2022/11/17 08:14:28;;;;;;;;;;;;;;;;;;2388345;62;1979;-74
2022/11/17 08:17:01;;;;;;;;;;;;;;;;;;2391846;62;1043;-74
2022/11/17 08:19:34;;;;;;;;;;;;;;;;;;2392196;62;1016;-74
2022/11/17 08:22:07;;;;;;;;;;;;;;;;;;2392427;62;1171;-74
2022/11/17 08:24:43;;;;;;;;;;;;;;;;;;2388024;62;1442;-74
2022/11/17 08:27:17;;;;;;;;;;;;;;;;;;2392508;54;931;-74
2022/11/17 08:29:50;;;;;;;;;;;;;;;;;;2388366;62;1139;-74
2022/11/17 08:32:23;;;;;;;;;;;;;;;;;;2393284;54;1257;-75
2022/11/17 08:34:56;;;;;;;;;;;;;;;;;;2392330;54;1919;-74
2022/11/17 08:37:29;;;;;;;;;;;;;;;;;;2392921;62;1046;-74
2022/11/17 08:40:06;;;;;;;;;;;;;;;;;;2392307;62;939;-75
2022/11/17 08:42:39;;;;;;;;;;;;;;;;;;2392527;62;1229;-74
2022/11/17 08:45:12;;;;;;;;;;;;;;;;;;2391832;62;1080;-74
2022/11/17 08:47:45;;;;;;;;;;;;;;;;;;2392566;54;1006;-74
2022/11/17 08:50:19;;;;;;;;;;;;;;;;;;2395170;62;1027;-75
2022/11/17 08:52:53;;;;;;;;;;;;;;;;;;2391626;54;1903;-75
2022/11/17 08:55:29;;;;;;;;;;;;;;;;;;2392527;54;1021;-74
2022/11/17 08:58:02;;;;;;;;;;;;;;;;;;2393079;62;998;-74
2022/11/17 09:00:35;;;;;;;;;;;;;;;;;;2392727;62;1062;-75
2022/11/17 09:03:09;;;;;;;;;;;;;;;;;;2390783;54;1328;-75
2022/11/17 09:05:44;;;;;;;;;;;;;;;;;;2392344;62;973;-75
2022/11/17 09:08:17;;;;;;;;;;;;;;;;;;2392598;62;826;-75
2022/11/17 09:10:53;;;;;;;;;;;;;;;;;;2392202;62;1037;-74
2022/11/17 09:13:27;;;;;;;;;;;;;;;;;;2392510;62;1988;-74
2022/11/17 09:16:02;;;;;;;;;;;;;;;;;;2391768;62;832;-75
2022/11/17 09:18:35;;;;;;;;;;;;;;;;;;2392309;62;1026;-75
2022/11/17 09:21:10;;;;;;;;;;;;;;;;;;2392265;54;1054;-74
2022/11/17 09:23:43;;;;;;;;;;;;;;;;;;2391265;62;1160;-74
2022/11/17 09:26:19;;;;;;;;;;;;;;;;;;2392284;62;1020;-74
2022/11/17 09:28:53;;;;;;;;;;;;;;;;;;2387615;62;1492;-74
2022/11/17 09:31:26;;;;;;;;;;;;;;;;;;2392669;62;1002;-74
2022/11/17 09:34:01;;;;;;;;;;;;;;;;;;2387605;62;2229;-74
2022/11/17 09:36:36;;;;;;;;;;;;;;;;;;2387923;62;1355;-74
2022/11/17 09:39:09;;;;;;;;;;;;;;;;;;2387802;62;1304;-74
2022/11/17 09:41:48;;;;;;;;;;;;;;;;;;2388098;62;1218;-75
2022/11/17 09:44:29;;;;;;;;;;;;;;;;;;2386613;62;1602;-74
2022/11/17 09:47:08;;;;;;;;;;;;;;;;;;2388088;62;1138;-74
2022/11/17 09:49:47;;;;;;;;;;;;;;;;;;2392070;55;1027;-74
2022/11/17 09:52:23;;;;;;;;;;;;;;;;;;2392414;54;1230;-74
2022/11/17 09:54:58;;;;;;;;;;;;;;;;;;2388380;62;1928;-75
2022/11/17 09:57:41;;;;;;;;;;;;;;;;;;2393200;62;855;-75
2022/11/17 10:00:21;;;;;;;;;;;;;;;;;;2388717;62;1305;-74
2022/11/17 10:09:59;;;;;;;;;;;;;;;;;;2392806;62;949;-75
2022/11/17 20:42:27;;;;;;;;;;;;;;;;;;2391767;54;1858;-72
2022/11/17 20:45:00;;;;;;;;;;;;;;;;;;2390698;54;1179;-72
2022/11/17 20:47:33;;;;;;;;;;;;;;;;;;2391716;62;1006;-72
2022/11/17 20:50:06;;;;;;;;;;;;;;;;;;2391838;62;1059;-73
2022/11/17 20:52:40;;;;;;;;;;;;;;;;;;2387785;62;1233;-72
2022/11/17 21:06:18;;;;;;;;;;;;;;;;;;2387964;54;1519;-72
2022/11/17 21:08:52;;;;;;;;;;;;;;;;;;2389367;54;1066;-71
2022/11/17 21:14:15;;;;;;;;;;;;;;;;;;2390995;62;1919;-71
2022/11/17 21:16:48;;;;;;;;;;;;;;;;;;2390534;62;1255;-72
2022/11/17 21:19:22;;;;;;;;;;;;;;;;;;2390645;54;932;-71
2022/11/17 21:21:58;;;;;;;;;;;;;;;;;;2386469;62;1411;-71
2022/11/17 21:24:31;;;;;;;;;;;;;;;;;;2390831;62;1159;-71
2022/11/17 21:27:05;;;;;;;;;;;;;;;;;;2390296;54;860;-72
2022/11/17 21:29:38;;;;;;;;;;;;;;;;;;2390378;54;907;-72
2022/11/17 21:32:11;;;;;;;;;;;;;;;;;;2390459;62;1040;-71
2022/11/17 21:34:44;;;;;;;;;;;;;;;;;;2389998;54;1922;-72
2022/11/17 21:37:20;;;;;;;;;;;;;;;;;;2390647;62;935;-72
2022/11/17 21:39:54;;;;;;;;;;;;;;;;;;2390403;62;1009;-71
2022/11/17 21:42:27;;;;;;;;;;;;;;;;;;2390893;54;1047;-73
2022/11/17 21:45:00;;;;;;;;;;;;;;;;;;2390363;62;1197;-71
2022/11/17 21:47:33;;;;;;;;;;;;;;;;;;2390790;62;856;-71
2022/11/17 21:50:07;;;;;;;;;;;;;;;;;;2390465;62;1003;-72
2022/11/17 21:52:42;;;;;;;;;;;;;;;;;;2390626;62;1035;-71
2022/11/17 21:55:16;;;;;;;;;;;;;;;;;;2390479;62;1927;-72
2022/11/17 21:57:51;;;;;;;;;;;;;;;;;;2390499;62;1017;-71
2022/11/17 22:00:27;;;;;;;;;;;;;;;;;;2390627;54;869;-71
2022/11/17 22:38:06;;;;;;;;;;;;;;;;;;2382549;62;616;-73
2022/11/17 22:40:43;;;;;;;;;;;;;;;;;;2383641;62;970;-72
2022/11/17 22:43:16;;;;;;;;;;;;;;;;;;2379484;62;1157;-73
2022/11/17 22:45:49;;;;;;;;;;;;;;;;;;2383612;62;1238;-73
2022/11/17 22:48:23;;;;;;;;;;;;;;;;;;2383537;62;972;-73
2022/11/17 22:50:58;;;;;;;;;;;;;;;;;;2386374;54;1818;-72
2022/11/17 22:53:35;;;;;;;;;;;;;;;;;;2390952;62;814;-71
2022/11/17 22:56:09;;;;;;;;;;;;;;;;;;2391162;62;1974;-71
2022/11/17 22:58:42;;;;;;;;;;;;;;;;;;2391783;62;1012;-71
2022/11/17 23:01:15;;;;;;;;;;;;;;;;;;2391141;62;1213;-71
2022/11/17 23:03:48;;;;;;;;;;;;;;;;;;2391433;62;1032;-71
2022/11/17 23:06:22;;;;;;;;;;;;;;;;;;2391252;62;923;-71
2022/11/17 23:08:59;;;;;;;;;;;;;;;;;;2391159;62;1043;-71
2022/11/17 23:11:32;;;;;;;;;;;;;;;;;;2391736;54;1215;-72
2022/11/17 23:14:05;;;;;;;;;;;;;;;;;;2391210;62;1031;-71
2022/11/17 23:16:40;;;;;;;;;;;;;;;;;;2391269;62;1983;-71
2022/11/17 23:19:14;;;;;;;;;;;;;;;;;;2391346;62;1035;-71
2022/11/17 23:21:47;;;;;;;;;;;;;;;;;;2385477;54;3457;-73
2022/11/17 23:24:23;;;;;;;;;;;;;;;;;;2386649;62;1049;-70
2022/11/17 23:26:56;;;;;;;;;;;;;;;;;;2387484;62;1019;-70
2022/11/17 23:29:29;;;;;;;;;;;;;;;;;;2386547;62;1789;-70
2022/11/17 23:32:02;;;;;;;;;;;;;;;;;;2387058;62;1123;-70
2022/11/17 23:34:35;;;;;;;;;;;;;;;;;;2387310;54;1971;-70
2022/11/17 23:37:08;;;;;;;;;;;;;;;;;;2389001;54;3493;-71
2022/11/17 23:39:44;;;;;;;;;;;;;;;;;;2390574;62;1192;-71
2022/11/17 23:51:35;;;;;;;;;;;;;;;;;;2392119;54;904;-72
2022/11/17 23:54:15;;;;;;;;;;;;;;;;;;2391631;62;1730;-73
2022/11/17 23:56:52;;;;;;;;;;;;;;;;;;2391135;54;1928;-73
2022/11/17 23:59:25;;;;;;;;;;;;;;;;;;2391267;54;1050;-73
